sensor_id;sensor_type;location;lat;lon;timestamp;P1;durP1;ratioP1;P2;durP2;ratioP2
65469;SDS011;52067;50.710;14.492;2023-04-24T00:01:29;26.10;;;12.65;;
65469;SDS011;52067;50.710;14.492;2023-04-24T00:03:55;26.70;;;12.27;;
65469;SDS011;52067;50.710;14.492;2023-04-24T00:06:24;28.60;;;12.20;;
65469;SDS011;52067;50.710;14.492;2023-04-24T00:08:58;29.30;;;12.98;;
65469;SDS011;52067;50.710;14.492;2023-04-24T00:11:25;25.23;;;12.57;;
65469;SDS011;52067;50.710;14.492;2023-04-24T00:13:51;26.23;;;12.63;;
65469;SDS011;52067;50.710;14.492;2023-04-24T00:16:16;32.65;;;14.32;;
65469;SDS011;52067;50.710;14.492;2023-04-24T00:18:41;39.65;;;15.15;;
65469;SDS011;52067;50.710;14.492;2023-04-24T00:21:07;36.50;;;16.88;;
65469;SDS011;52067;50.710;14.492;2023-04-24T00:23:32;38.63;;;17.60;;
65469;SDS011;52067;50.710;14.492;2023-04-24T00:25:57;39.53;;;15.80;;
65469;SDS011;52067;50.710;14.492;2023-04-24T00:28:23;51.88;;;21.98;;
65469;SDS011;52067;50.710;14.492;2023-04-24T00:30:48;45.80;;;19.48;;
65469;SDS011;52067;50.710;14.492;2023-04-24T00:33:14;22.42;;;10.48;;
65469;SDS011;52067;50.710;14.492;2023-04-24T00:35:39;22.73;;;10.30;;
65469;SDS011;52067;50.710;14.492;2023-04-24T00:38:05;37.60;;;15.73;;
65469;SDS011;52067;50.710;14.492;2023-04-24T00:40:31;27.20;;;12.07;;
65469;SDS011;52067;50.710;14.492;2023-04-24T00:42:56;21.58;;;9.73;;
65469;SDS011;52067;50.710;14.492;2023-04-24T00:45:22;20.88;;;9.18;;
65469;SDS011;52067;50.710;14.492;2023-04-24T00:47:47;17.60;;;7.95;;
65469;SDS011;52067;50.710;14.492;2023-04-24T00:50:14;18.67;;;8.75;;
65469;SDS011;52067;50.710;14.492;2023-04-24T00:52:40;19.58;;;9.77;;
65469;SDS011;52067;50.710;14.492;2023-04-24T00:55:06;25.10;;;10.55;;
65469;SDS011;52067;50.710;14.492;2023-04-24T00:57:32;26.13;;;8.60;;
65469;SDS011;52067;50.710;14.492;2023-04-24T00:59:57;17.73;;;7.93;;
65469;SDS011;52067;50.710;14.492;2023-04-24T01:02:23;17.73;;;8.75;;
65469;SDS011;52067;50.710;14.492;2023-04-24T01:04:50;20.50;;;9.55;;
65469;SDS011;52067;50.710;14.492;2023-04-24T01:07:17;18.25;;;9.52;;
65469;SDS011;52067;50.710;14.492;2023-04-24T01:09:46;29.30;;;13.23;;
65469;SDS011;52067;50.710;14.492;2023-04-24T01:12:14;24.20;;;11.82;;
65469;SDS011;52067;50.710;14.492;2023-04-24T01:14:40;15.43;;;8.02;;
65469;SDS011;52067;50.710;14.492;2023-04-24T01:17:05;15.70;;;7.22;;
65469;SDS011;52067;50.710;14.492;2023-04-24T01:19:32;14.27;;;7.50;;
65469;SDS011;52067;50.710;14.492;2023-04-24T01:21:58;13.50;;;7.40;;
65469;SDS011;52067;50.710;14.492;2023-04-24T01:24:26;11.52;;;6.40;;
65469;SDS011;52067;50.710;14.492;2023-04-24T01:26:52;15.23;;;7.47;;
65469;SDS011;52067;50.710;14.492;2023-04-24T01:29:18;13.60;;;7.30;;
65469;SDS011;52067;50.710;14.492;2023-04-24T01:31:43;11.25;;;6.63;;
65469;SDS011;52067;50.710;14.492;2023-04-24T01:34:09;14.55;;;6.80;;
65469;SDS011;52067;50.710;14.492;2023-04-24T01:36:35;12.70;;;6.85;;
65469;SDS011;52067;50.710;14.492;2023-04-24T01:39:01;13.65;;;7.45;;
65469;SDS011;52067;50.710;14.492;2023-04-24T01:41:27;15.65;;;7.20;;
65469;SDS011;52067;50.710;14.492;2023-04-24T01:43:53;12.20;;;7.22;;
65469;SDS011;52067;50.710;14.492;2023-04-24T01:46:19;14.73;;;8.10;;
65469;SDS011;52067;50.710;14.492;2023-04-24T01:48:45;16.95;;;8.55;;
65469;SDS011;52067;50.710;14.492;2023-04-24T01:51:11;15.70;;;7.72;;
65469;SDS011;52067;50.710;14.492;2023-04-24T01:53:36;15.10;;;7.93;;
65469;SDS011;52067;50.710;14.492;2023-04-24T01:56:01;15.75;;;7.90;;
65469;SDS011;52067;50.710;14.492;2023-04-24T01:58:27;13.77;;;7.72;;
65469;SDS011;52067;50.710;14.492;2023-04-24T02:00:55;17.05;;;8.88;;
65469;SDS011;52067;50.710;14.492;2023-04-24T02:03:21;29.90;;;12.35;;
65469;SDS011;52067;50.710;14.492;2023-04-24T02:05:46;20.25;;;10.50;;
65469;SDS011;52067;50.710;14.492;2023-04-24T02:08:12;18.77;;;9.40;;
65469;SDS011;52067;50.710;14.492;2023-04-24T02:10:37;14.77;;;8.65;;
65469;SDS011;52067;50.710;14.492;2023-04-24T02:13:03;20.48;;;10.18;;
65469;SDS011;52067;50.710;14.492;2023-04-24T02:15:29;26.42;;;10.80;;
65469;SDS011;52067;50.710;14.492;2023-04-24T02:17:55;17.67;;;10.50;;
65469;SDS011;52067;50.710;14.492;2023-04-24T02:20:20;18.42;;;10.25;;
65469;SDS011;52067;50.710;14.492;2023-04-24T02:22:46;20.77;;;10.45;;
65469;SDS011;52067;50.710;14.492;2023-04-24T02:25:11;33.30;;;13.43;;
65469;SDS011;52067;50.710;14.492;2023-04-24T02:27:36;28.10;;;13.88;;
65469;SDS011;52067;50.710;14.492;2023-04-24T02:30:02;18.80;;;9.82;;
65469;SDS011;52067;50.710;14.492;2023-04-24T02:32:28;17.55;;;9.68;;
65469;SDS011;52067;50.710;14.492;2023-04-24T02:34:53;28.02;;;11.45;;
65469;SDS011;52067;50.710;14.492;2023-04-24T02:37:19;22.23;;;10.93;;
65469;SDS011;52067;50.710;14.492;2023-04-24T02:39:44;19.10;;;9.93;;
65469;SDS011;52067;50.710;14.492;2023-04-24T02:42:09;19.58;;;9.98;;
65469;SDS011;52067;50.710;14.492;2023-04-24T02:44:35;19.92;;;10.27;;
65469;SDS011;52067;50.710;14.492;2023-04-24T02:47:00;22.70;;;10.25;;
65469;SDS011;52067;50.710;14.492;2023-04-24T02:49:25;17.88;;;10.23;;
65469;SDS011;52067;50.710;14.492;2023-04-24T02:51:52;20.48;;;9.43;;
65469;SDS011;52067;50.710;14.492;2023-04-24T02:54:17;22.63;;;11.48;;
65469;SDS011;52067;50.710;14.492;2023-04-24T02:56:42;26.08;;;13.10;;
65469;SDS011;52067;50.710;14.492;2023-04-24T02:59:08;25.00;;;12.07;;
65469;SDS011;52067;50.710;14.492;2023-04-24T03:01:33;22.73;;;12.13;;
65469;SDS011;52067;50.710;14.492;2023-04-24T03:03:59;29.70;;;14.13;;
65469;SDS011;52067;50.710;14.492;2023-04-24T03:06:24;23.77;;;12.20;;
65469;SDS011;52067;50.710;14.492;2023-04-24T03:08:50;25.05;;;11.70;;
65469;SDS011;52067;50.710;14.492;2023-04-24T03:11:15;22.67;;;11.73;;
65469;SDS011;52067;50.710;14.492;2023-04-24T03:13:40;30.33;;;13.30;;
65469;SDS011;52067;50.710;14.492;2023-04-24T03:16:06;26.80;;;13.10;;
65469;SDS011;52067;50.710;14.492;2023-04-24T03:18:31;23.55;;;12.27;;
65469;SDS011;52067;50.710;14.492;2023-04-24T03:20:56;34.67;;;14.73;;
65469;SDS011;52067;50.710;14.492;2023-04-24T03:23:22;25.27;;;11.15;;
65469;SDS011;52067;50.710;14.492;2023-04-24T03:25:48;21.42;;;10.93;;
65469;SDS011;52067;50.710;14.492;2023-04-24T03:28:13;27.83;;;13.30;;
65469;SDS011;52067;50.710;14.492;2023-04-24T03:30:39;31.23;;;14.30;;
65469;SDS011;52067;50.710;14.492;2023-04-24T03:33:04;30.15;;;14.15;;
65469;SDS011;52067;50.710;14.492;2023-04-24T03:35:30;27.90;;;13.68;;
65469;SDS011;52067;50.710;14.492;2023-04-24T03:37:55;28.17;;;13.30;;
65469;SDS011;52067;50.710;14.492;2023-04-24T03:40:21;23.67;;;12.43;;
65469;SDS011;52067;50.710;14.492;2023-04-24T03:42:46;25.80;;;13.30;;
65469;SDS011;52067;50.710;14.492;2023-04-24T03:45:11;27.45;;;13.68;;
65469;SDS011;52067;50.710;14.492;2023-04-24T03:47:37;21.10;;;12.18;;
65469;SDS011;52067;50.710;14.492;2023-04-24T03:50:02;23.48;;;12.60;;
65469;SDS011;52067;50.710;14.492;2023-04-24T03:52:28;21.92;;;10.63;;
65469;SDS011;52067;50.710;14.492;2023-04-24T03:54:53;22.50;;;11.57;;
65469;SDS011;52067;50.710;14.492;2023-04-24T03:57:19;23.42;;;12.30;;
65469;SDS011;52067;50.710;14.492;2023-04-24T03:59:44;21.02;;;12.18;;
65469;SDS011;52067;50.710;14.492;2023-04-24T04:02:09;37.55;;;17.27;;
65469;SDS011;52067;50.710;14.492;2023-04-24T04:04:35;61.67;;;23.73;;
65469;SDS011;52067;50.710;14.492;2023-04-24T04:07:00;75.88;;;26.20;;
65469;SDS011;52067;50.710;14.492;2023-04-24T04:09:27;70.10;;;25.38;;
65469;SDS011;52067;50.710;14.492;2023-04-24T04:11:53;45.00;;;19.67;;
65469;SDS011;52067;50.710;14.492;2023-04-24T04:14:19;32.17;;;16.17;;
65469;SDS011;52067;50.710;14.492;2023-04-24T04:16:44;22.73;;;12.85;;
65469;SDS011;52067;50.710;14.492;2023-04-24T04:19:10;20.70;;;12.10;;
65469;SDS011;52067;50.710;14.492;2023-04-24T04:21:35;21.25;;;12.35;;
65469;SDS011;52067;50.710;14.492;2023-04-24T04:24:00;121.53;;;108.00;;
65469;SDS011;52067;50.710;14.492;2023-04-24T04:26:26;50.35;;;33.75;;
65469;SDS011;52067;50.710;14.492;2023-04-24T04:28:52;34.20;;;18.10;;
65469;SDS011;52067;50.710;14.492;2023-04-24T04:31:19;33.90;;;17.40;;
65469;SDS011;52067;50.710;14.492;2023-04-24T04:33:44;30.73;;;17.40;;
65469;SDS011;52067;50.710;14.492;2023-04-24T04:36:10;24.58;;;13.48;;
65469;SDS011;52067;50.710;14.492;2023-04-24T04:38:35;13.85;;;9.02;;
65469;SDS011;52067;50.710;14.492;2023-04-24T04:41:02;16.88;;;11.60;;
65469;SDS011;52067;50.710;14.492;2023-04-24T04:43:27;16.50;;;10.02;;
65469;SDS011;52067;50.710;14.492;2023-04-24T04:45:53;25.52;;;12.85;;
65469;SDS011;52067;50.710;14.492;2023-04-24T04:48:19;27.70;;;14.95;;
65469;SDS011;52067;50.710;14.492;2023-04-24T04:50:45;32.53;;;17.67;;
65469;SDS011;52067;50.710;14.492;2023-04-24T04:53:10;89.82;;;43.33;;
65469;SDS011;52067;50.710;14.492;2023-04-24T04:55:36;40.53;;;22.45;;
65469;SDS011;52067;50.710;14.492;2023-04-24T04:58:02;54.03;;;24.90;;
65469;SDS011;52067;50.710;14.492;2023-04-24T05:00:27;38.85;;;21.02;;
65469;SDS011;52067;50.710;14.492;2023-04-24T05:02:54;32.53;;;18.52;;
65469;SDS011;52067;50.710;14.492;2023-04-24T05:05:19;29.27;;;16.08;;
65469;SDS011;52067;50.710;14.492;2023-04-24T05:07:45;36.05;;;18.17;;
65469;SDS011;52067;50.710;14.492;2023-04-24T05:10:10;41.72;;;19.40;;
65469;SDS011;52067;50.710;14.492;2023-04-24T05:12:36;39.22;;;21.23;;
65469;SDS011;52067;50.710;14.492;2023-04-24T05:15:01;116.35;;;48.72;;
65469;SDS011;52067;50.710;14.492;2023-04-24T05:17:27;77.25;;;34.53;;
65469;SDS011;52067;50.710;14.492;2023-04-24T05:19:53;45.85;;;24.48;;
65469;SDS011;52067;50.710;14.492;2023-04-24T05:22:18;23.27;;;13.05;;
65469;SDS011;52067;50.710;14.492;2023-04-24T05:24:45;30.42;;;14.15;;
65469;SDS011;52067;50.710;14.492;2023-04-24T05:27:11;23.42;;;12.77;;
65469;SDS011;52067;50.710;14.492;2023-04-24T05:29:37;33.47;;;15.80;;
65469;SDS011;52067;50.710;14.492;2023-04-24T05:32:02;26.77;;;13.38;;
65469;SDS011;52067;50.710;14.492;2023-04-24T05:34:28;43.70;;;19.63;;
65469;SDS011;52067;50.710;14.492;2023-04-24T05:36:53;39.28;;;18.33;;
65469;SDS011;52067;50.710;14.492;2023-04-24T05:39:18;38.00;;;17.75;;
65469;SDS011;52067;50.710;14.492;2023-04-24T05:41:44;32.70;;;16.77;;
65469;SDS011;52067;50.710;14.492;2023-04-24T05:44:10;34.15;;;16.40;;
65469;SDS011;52067;50.710;14.492;2023-04-24T05:46:35;31.27;;;14.90;;
65469;SDS011;52067;50.710;14.492;2023-04-24T05:49:01;31.40;;;16.00;;
65469;SDS011;52067;50.710;14.492;2023-04-24T05:51:27;27.00;;;14.45;;
65469;SDS011;52067;50.710;14.492;2023-04-24T05:53:53;30.13;;;15.63;;
65469;SDS011;52067;50.710;14.492;2023-04-24T05:56:18;24.88;;;13.40;;
65469;SDS011;52067;50.710;14.492;2023-04-24T05:58:45;21.42;;;12.32;;
65469;SDS011;52067;50.710;14.492;2023-04-24T06:01:11;23.48;;;11.10;;
65469;SDS011;52067;50.710;14.492;2023-04-24T06:03:37;21.20;;;12.18;;
65469;SDS011;52067;50.710;14.492;2023-04-24T06:06:06;30.48;;;16.52;;
65469;SDS011;52067;50.710;14.492;2023-04-24T06:08:33;31.63;;;16.92;;
65469;SDS011;52067;50.710;14.492;2023-04-24T06:10:58;20.17;;;11.20;;
65469;SDS011;52067;50.710;14.492;2023-04-24T06:13:24;18.27;;;10.73;;
65469;SDS011;52067;50.710;14.492;2023-04-24T06:15:50;26.63;;;15.13;;
65469;SDS011;52067;50.710;14.492;2023-04-24T06:18:15;27.35;;;16.00;;
65469;SDS011;52067;50.710;14.492;2023-04-24T06:20:41;19.88;;;12.05;;
65469;SDS011;52067;50.710;14.492;2023-04-24T06:23:06;22.63;;;13.93;;
65469;SDS011;52067;50.710;14.492;2023-04-24T06:25:32;25.55;;;14.27;;
65469;SDS011;52067;50.710;14.492;2023-04-24T06:27:57;22.88;;;12.98;;
65469;SDS011;52067;50.710;14.492;2023-04-24T06:30:23;17.33;;;10.63;;
65469;SDS011;52067;50.710;14.492;2023-04-24T06:32:48;15.20;;;10.27;;
65469;SDS011;52067;50.710;14.492;2023-04-24T06:35:14;19.50;;;11.18;;
65469;SDS011;52067;50.710;14.492;2023-04-24T06:37:39;17.48;;;10.23;;
65469;SDS011;52067;50.710;14.492;2023-04-24T06:40:06;17.30;;;10.75;;
65469;SDS011;52067;50.710;14.492;2023-04-24T06:42:32;19.92;;;11.13;;
65469;SDS011;52067;50.710;14.492;2023-04-24T06:44:57;26.75;;;13.38;;
65469;SDS011;52067;50.710;14.492;2023-04-24T06:47:23;27.48;;;14.90;;
65469;SDS011;52067;50.710;14.492;2023-04-24T06:49:48;25.00;;;13.95;;
65469;SDS011;52067;50.710;14.492;2023-04-24T06:52:15;28.75;;;16.88;;
65469;SDS011;52067;50.710;14.492;2023-04-24T06:54:41;31.58;;;18.50;;
65469;SDS011;52067;50.710;14.492;2023-04-24T06:57:07;24.50;;;15.80;;
65469;SDS011;52067;50.710;14.492;2023-04-24T06:59:33;18.58;;;10.73;;
65469;SDS011;52067;50.710;14.492;2023-04-24T07:01:58;18.60;;;11.50;;
65469;SDS011;52067;50.710;14.492;2023-04-24T07:04:24;19.52;;;11.35;;
65469;SDS011;52067;50.710;14.492;2023-04-24T07:06:50;19.08;;;10.90;;
65469;SDS011;52067;50.710;14.492;2023-04-24T07:09:16;23.65;;;13.32;;
65469;SDS011;52067;50.710;14.492;2023-04-24T07:11:43;21.52;;;13.23;;
65469;SDS011;52067;50.710;14.492;2023-04-24T07:14:09;23.60;;;11.35;;
65469;SDS011;52067;50.710;14.492;2023-04-24T07:16:35;18.92;;;10.50;;
65469;SDS011;52067;50.710;14.492;2023-04-24T07:19:00;16.75;;;10.68;;
65469;SDS011;52067;50.710;14.492;2023-04-24T07:21:26;14.48;;;9.85;;
65469;SDS011;52067;50.710;14.492;2023-04-24T07:23:52;14.55;;;9.15;;
65469;SDS011;52067;50.710;14.492;2023-04-24T07:26:17;15.73;;;9.77;;
65469;SDS011;52067;50.710;14.492;2023-04-24T07:28:43;20.88;;;10.45;;
65469;SDS011;52067;50.710;14.492;2023-04-24T07:31:08;10.77;;;7.03;;
65469;SDS011;52067;50.710;14.492;2023-04-24T07:33:34;12.40;;;7.32;;
65469;SDS011;52067;50.710;14.492;2023-04-24T07:36:01;13.88;;;7.40;;
65469;SDS011;52067;50.710;14.492;2023-04-24T07:38:26;11.27;;;6.53;;
65469;SDS011;52067;50.710;14.492;2023-04-24T07:40:54;10.32;;;5.55;;
65469;SDS011;52067;50.710;14.492;2023-04-24T07:43:20;10.48;;;5.20;;
65469;SDS011;52067;50.710;14.492;2023-04-24T07:45:46;9.65;;;5.57;;
65469;SDS011;52067;50.710;14.492;2023-04-24T07:48:11;10.05;;;5.95;;
65469;SDS011;52067;50.710;14.492;2023-04-24T07:50:39;10.80;;;5.60;;
65469;SDS011;52067;50.710;14.492;2023-04-24T07:53:05;8.02;;;5.68;;
65469;SDS011;52067;50.710;14.492;2023-04-24T07:55:30;14.07;;;7.43;;
65469;SDS011;52067;50.710;14.492;2023-04-24T07:57:56;15.95;;;8.18;;
65469;SDS011;52067;50.710;14.492;2023-04-24T08:00:21;8.18;;;5.40;;
65469;SDS011;52067;50.710;14.492;2023-04-24T08:02:46;7.20;;;5.75;;
65469;SDS011;52067;50.710;14.492;2023-04-24T08:05:12;10.13;;;5.93;;
65469;SDS011;52067;50.710;14.492;2023-04-24T08:07:37;7.30;;;5.80;;
65469;SDS011;52067;50.710;14.492;2023-04-24T08:10:03;9.90;;;6.43;;
65469;SDS011;52067;50.710;14.492;2023-04-24T08:12:29;8.13;;;6.28;;
65469;SDS011;52067;50.710;14.492;2023-04-24T08:14:55;9.07;;;6.68;;
65469;SDS011;52067;50.710;14.492;2023-04-24T08:17:20;11.27;;;6.97;;
65469;SDS011;52067;50.710;14.492;2023-04-24T08:19:46;8.60;;;6.65;;
65469;SDS011;52067;50.710;14.492;2023-04-24T08:22:16;8.90;;;7.15;;
65469;SDS011;52067;50.710;14.492;2023-04-24T08:24:42;9.95;;;6.82;;
65469;SDS011;52067;50.710;14.492;2023-04-24T08:27:08;9.32;;;6.90;;
65469;SDS011;52067;50.710;14.492;2023-04-24T08:29:34;8.18;;;6.68;;
65469;SDS011;52067;50.710;14.492;2023-04-24T08:31:59;8.45;;;7.18;;
65469;SDS011;52067;50.710;14.492;2023-04-24T08:34:25;8.27;;;6.70;;
65469;SDS011;52067;50.710;14.492;2023-04-24T08:36:50;8.30;;;6.80;;
65469;SDS011;52067;50.710;14.492;2023-04-24T08:39:16;8.43;;;6.85;;
65469;SDS011;52067;50.710;14.492;2023-04-24T08:41:42;8.18;;;6.35;;
65469;SDS011;52067;50.710;14.492;2023-04-24T08:44:10;9.45;;;6.20;;
65469;SDS011;52067;50.710;14.492;2023-04-24T08:46:36;7.95;;;6.35;;
65469;SDS011;52067;50.710;14.492;2023-04-24T08:49:02;8.45;;;6.38;;
65469;SDS011;52067;50.710;14.492;2023-04-24T08:51:28;7.40;;;5.95;;
65469;SDS011;52067;50.710;14.492;2023-04-24T08:53:55;6.35;;;5.50;;
65469;SDS011;52067;50.710;14.492;2023-04-24T08:56:22;7.50;;;5.43;;
65469;SDS011;52067;50.710;14.492;2023-04-24T08:58:50;9.70;;;5.60;;
65469;SDS011;52067;50.710;14.492;2023-04-24T09:01:16;8.13;;;5.72;;
65469;SDS011;52067;50.710;14.492;2023-04-24T09:03:44;7.15;;;5.43;;
65469;SDS011;52067;50.710;14.492;2023-04-24T09:06:11;8.27;;;4.97;;
65469;SDS011;52067;50.710;14.492;2023-04-24T09:08:36;6.00;;;4.40;;
65469;SDS011;52067;50.710;14.492;2023-04-24T09:11:04;6.88;;;5.90;;
65469;SDS011;52067;50.710;14.492;2023-04-24T09:13:30;8.27;;;5.10;;
65469;SDS011;52067;50.710;14.492;2023-04-24T09:15:55;4.95;;;4.30;;
65469;SDS011;52067;50.710;14.492;2023-04-24T09:18:22;5.78;;;4.30;;
65469;SDS011;52067;50.710;14.492;2023-04-24T09:20:57;5.68;;;4.20;;
65469;SDS011;52067;50.710;14.492;2023-04-24T09:23:28;5.78;;;4.60;;
65469;SDS011;52067;50.710;14.492;2023-04-24T09:25:57;6.15;;;4.75;;
65469;SDS011;52067;50.710;14.492;2023-04-24T09:28:26;4.70;;;4.20;;
65469;SDS011;52067;50.710;14.492;2023-04-24T09:33:39;5.90;;;4.22;;
65469;SDS011;52067;50.710;14.492;2023-04-24T09:36:05;7.18;;;3.75;;
65469;SDS011;52067;50.710;14.492;2023-04-24T09:38:32;5.05;;;3.20;;
65469;SDS011;52067;50.710;14.492;2023-04-24T09:41:06;4.78;;;3.38;;
65469;SDS011;52067;50.710;14.492;2023-04-24T09:43:33;4.38;;;3.50;;
65469;SDS011;52067;50.710;14.492;2023-04-24T09:46:00;4.80;;;3.28;;
65469;SDS011;52067;50.710;14.492;2023-04-24T09:48:31;5.35;;;3.28;;
65469;SDS011;52067;50.710;14.492;2023-04-24T09:51:01;3.85;;;2.72;;
65469;SDS011;52067;50.710;14.492;2023-04-24T09:53:28;3.58;;;2.50;;
65469;SDS011;52067;50.710;14.492;2023-04-24T09:55:55;3.47;;;2.33;;
65469;SDS011;52067;50.710;14.492;2023-04-24T09:58:27;4.68;;;2.50;;
65469;SDS011;52067;50.710;14.492;2023-04-24T10:00:54;3.38;;;2.50;;
65469;SDS011;52067;50.710;14.492;2023-04-24T10:03:23;3.95;;;2.78;;
65469;SDS011;52067;50.710;14.492;2023-04-24T10:05:51;3.47;;;2.60;;
65469;SDS011;52067;50.710;14.492;2023-04-24T10:08:16;3.55;;;2.67;;
65469;SDS011;52067;50.710;14.492;2023-04-24T10:10:43;5.15;;;2.58;;
65469;SDS011;52067;50.710;14.492;2023-04-24T10:13:10;4.55;;;2.63;;
65469;SDS011;52067;50.710;14.492;2023-04-24T10:15:37;5.30;;;2.80;;
65469;SDS011;52067;50.710;14.492;2023-04-24T10:18:06;4.03;;;3.10;;
65469;SDS011;52067;50.710;14.492;2023-04-24T10:20:33;4.63;;;3.40;;
65469;SDS011;52067;50.710;14.492;2023-04-24T10:23:00;5.07;;;3.63;;
65469;SDS011;52067;50.710;14.492;2023-04-24T10:25:27;4.78;;;3.83;;
65469;SDS011;52067;50.710;14.492;2023-04-24T10:27:55;5.40;;;3.10;;
65469;SDS011;52067;50.710;14.492;2023-04-24T10:30:28;5.38;;;3.63;;
65469;SDS011;52067;50.710;14.492;2023-04-24T10:32:54;4.15;;;3.10;;
65469;SDS011;52067;50.710;14.492;2023-04-24T10:35:20;6.20;;;3.38;;
65469;SDS011;52067;50.710;14.492;2023-04-24T10:37:50;4.50;;;2.67;;
65469;SDS011;52067;50.710;14.492;2023-04-24T10:40:31;3.22;;;2.50;;
65469;SDS011;52067;50.710;14.492;2023-04-24T10:42:58;5.85;;;3.15;;
65469;SDS011;52067;50.710;14.492;2023-04-24T10:45:24;5.07;;;3.15;;
65469;SDS011;52067;50.710;14.492;2023-04-24T10:50:46;3.95;;;2.50;;
65469;SDS011;52067;50.710;14.492;2023-04-24T10:53:19;3.60;;;2.75;;
65469;SDS011;52067;50.710;14.492;2023-04-24T10:58:23;4.68;;;2.50;;
65469;SDS011;52067;50.710;14.492;2023-04-24T11:00:57;5.03;;;2.35;;
65469;SDS011;52067;50.710;14.492;2023-04-24T11:03:29;7.93;;;2.70;;
65469;SDS011;52067;50.710;14.492;2023-04-24T11:06:06;3.08;;;2.28;;
65469;SDS011;52067;50.710;14.492;2023-04-24T11:08:38;3.15;;;2.20;;
65469;SDS011;52067;50.710;14.492;2023-04-24T11:11:17;6.88;;;2.50;;
65469;SDS011;52067;50.710;14.492;2023-04-24T11:18:51;2.65;;;2.00;;
65469;SDS011;52067;50.710;14.492;2023-04-24T11:21:22;3.30;;;2.28;;
65469;SDS011;52067;50.710;14.492;2023-04-24T11:23:47;3.70;;;2.25;;
65469;SDS011;52067;50.710;14.492;2023-04-24T11:26:14;3.80;;;2.17;;
65469;SDS011;52067;50.710;14.492;2023-04-24T11:28:47;3.65;;;2.28;;
65469;SDS011;52067;50.710;14.492;2023-04-24T11:34:08;4.22;;;2.47;;
65469;SDS011;52067;50.710;14.492;2023-04-24T11:36:35;3.88;;;2.53;;
65469;SDS011;52067;50.710;14.492;2023-04-24T11:39:01;5.53;;;2.30;;
65469;SDS011;52067;50.710;14.492;2023-04-24T11:41:27;3.00;;;2.30;;
65469;SDS011;52067;50.710;14.492;2023-04-24T11:43:53;5.20;;;2.33;;
65469;SDS011;52067;50.710;14.492;2023-04-24T11:46:20;5.97;;;2.83;;
65469;SDS011;52067;50.710;14.492;2023-04-24T11:48:46;4.20;;;2.67;;
65469;SDS011;52067;50.710;14.492;2023-04-24T11:51:12;4.78;;;2.92;;
65469;SDS011;52067;50.710;14.492;2023-04-24T11:53:38;6.32;;;4.15;;
65469;SDS011;52067;50.710;14.492;2023-04-24T11:56:04;6.40;;;4.47;;
65469;SDS011;52067;50.710;14.492;2023-04-24T11:58:34;13.45;;;7.90;;
65469;SDS011;52067;50.710;14.492;2023-04-24T12:01:05;4.35;;;2.60;;
65469;SDS011;52067;50.710;14.492;2023-04-24T12:03:31;4.30;;;2.50;;
65469;SDS011;52067;50.710;14.492;2023-04-24T12:06:09;3.50;;;2.78;;
65469;SDS011;52067;50.710;14.492;2023-04-24T12:08:35;3.10;;;2.42;;
65469;SDS011;52067;50.710;14.492;2023-04-24T12:11:02;4.15;;;3.00;;
65469;SDS011;52067;50.710;14.492;2023-04-24T12:13:28;6.15;;;2.50;;
65469;SDS011;52067;50.710;14.492;2023-04-24T12:15:56;4.40;;;2.70;;
65469;SDS011;52067;50.710;14.492;2023-04-24T12:18:22;4.90;;;2.80;;
65469;SDS011;52067;50.710;14.492;2023-04-24T12:20:48;4.65;;;2.78;;
65469;SDS011;52067;50.710;14.492;2023-04-24T12:23:14;2.50;;;2.05;;
65469;SDS011;52067;50.710;14.492;2023-04-24T12:25:39;4.00;;;2.50;;
65469;SDS011;52067;50.710;14.492;2023-04-24T12:30:35;4.38;;;2.42;;
65469;SDS011;52067;50.710;14.492;2023-04-24T12:33:05;4.80;;;2.50;;
65469;SDS011;52067;50.710;14.492;2023-04-24T12:35:31;3.20;;;2.50;;
65469;SDS011;52067;50.710;14.492;2023-04-24T12:38:11;3.28;;;2.35;;
65469;SDS011;52067;50.710;14.492;2023-04-24T12:40:38;3.13;;;2.58;;
65469;SDS011;52067;50.710;14.492;2023-04-24T12:43:18;8.07;;;4.30;;
65469;SDS011;52067;50.710;14.492;2023-04-24T12:45:44;5.85;;;3.50;;
65469;SDS011;52067;50.710;14.492;2023-04-24T12:48:11;6.47;;;3.65;;
65469;SDS011;52067;50.710;14.492;2023-04-24T12:50:37;6.22;;;3.17;;
65469;SDS011;52067;50.710;14.492;2023-04-24T12:53:03;4.18;;;3.40;;
65469;SDS011;52067;50.710;14.492;2023-04-24T12:55:28;7.45;;;3.20;;
65469;SDS011;52067;50.710;14.492;2023-04-24T12:57:54;7.10;;;4.03;;
65469;SDS011;52067;50.710;14.492;2023-04-24T13:00:20;11.07;;;4.30;;
65469;SDS011;52067;50.710;14.492;2023-04-24T13:02:46;8.32;;;4.55;;
65469;SDS011;52067;50.710;14.492;2023-04-24T13:05:11;5.85;;;3.40;;
65469;SDS011;52067;50.710;14.492;2023-04-24T13:07:38;7.65;;;3.65;;
65469;SDS011;52067;50.710;14.492;2023-04-24T13:10:04;8.07;;;5.00;;
65469;SDS011;52067;50.710;14.492;2023-04-24T13:12:30;7.38;;;3.60;;
65469;SDS011;52067;50.710;14.492;2023-04-24T13:14:56;7.65;;;4.80;;
65469;SDS011;52067;50.710;14.492;2023-04-24T13:17:22;14.75;;;6.28;;
65469;SDS011;52067;50.710;14.492;2023-04-24T13:19:49;12.93;;;7.07;;
65469;SDS011;52067;50.710;14.492;2023-04-24T13:22:16;5.88;;;3.40;;
65469;SDS011;52067;50.710;14.492;2023-04-24T13:24:43;5.72;;;3.20;;
65469;SDS011;52067;50.710;14.492;2023-04-24T13:27:09;3.65;;;2.75;;
65469;SDS011;52067;50.710;14.492;2023-04-24T13:29:34;5.45;;;3.33;;
65469;SDS011;52067;50.710;14.492;2023-04-24T13:32:00;3.70;;;2.42;;
65469;SDS011;52067;50.710;14.492;2023-04-24T13:34:26;7.78;;;2.47;;
65469;SDS011;52067;50.710;14.492;2023-04-24T13:36:53;5.05;;;1.42;;
65469;SDS011;52067;50.710;14.492;2023-04-24T13:39:20;2.63;;;1.52;;
65469;SDS011;52067;50.710;14.492;2023-04-24T13:41:45;2.42;;;1.40;;
65469;SDS011;52067;50.710;14.492;2023-04-24T13:44:13;1.58;;;1.30;;
65469;SDS011;52067;50.710;14.492;2023-04-24T13:46:40;5.10;;;1.50;;
65469;SDS011;52067;50.710;14.492;2023-04-24T13:49:05;2.08;;;1.40;;
65469;SDS011;52067;50.710;14.492;2023-04-24T13:51:32;1.85;;;1.30;;
65469;SDS011;52067;50.710;14.492;2023-04-24T13:53:57;1.83;;;1.08;;
65469;SDS011;52067;50.710;14.492;2023-04-24T13:56:23;1.45;;;1.20;;
65469;SDS011;52067;50.710;14.492;2023-04-24T13:58:48;2.03;;;1.48;;
65469;SDS011;52067;50.710;14.492;2023-04-24T14:01:14;1.80;;;1.30;;
65469;SDS011;52067;50.710;14.492;2023-04-24T14:03:40;2.25;;;1.20;;
65469;SDS011;52067;50.710;14.492;2023-04-24T14:06:07;2.38;;;1.20;;
65469;SDS011;52067;50.710;14.492;2023-04-24T14:08:32;2.33;;;1.30;;
65469;SDS011;52067;50.710;14.492;2023-04-24T14:10:58;1.50;;;1.20;;
65469;SDS011;52067;50.710;14.492;2023-04-24T14:13:25;2.85;;;1.25;;
65469;SDS011;52067;50.710;14.492;2023-04-24T14:15:51;2.90;;;1.10;;
65469;SDS011;52067;50.710;14.492;2023-04-24T14:18:17;2.97;;;1.55;;
65469;SDS011;52067;50.710;14.492;2023-04-24T14:20:43;4.65;;;1.40;;
65469;SDS011;52067;50.710;14.492;2023-04-24T14:23:09;2.33;;;1.38;;
65469;SDS011;52067;50.710;14.492;2023-04-24T14:25:34;2.65;;;1.52;;
65469;SDS011;52067;50.710;14.492;2023-04-24T14:27:59;2.25;;;1.40;;
65469;SDS011;52067;50.710;14.492;2023-04-24T14:30:25;3.10;;;1.23;;
65469;SDS011;52067;50.710;14.492;2023-04-24T14:32:50;4.18;;;1.35;;
65469;SDS011;52067;50.710;14.492;2023-04-24T14:35:16;3.17;;;1.38;;